createdAt,value
2023-04-23T00:03:21.200Z,97521.88
2023-04-23T00:08:23.342Z,97513.75
2023-04-23T00:13:25.821Z,97512.03
2023-04-23T00:18:27.867Z,97501.50
2023-04-23T00:23:29.735Z,97496.28
2023-04-23T00:28:31.545Z,97489.81
2023-04-23T00:33:33.358Z,97494.03
2023-04-23T00:38:35.173Z,97486.19
2023-04-23T00:43:37.836Z,97492.44
2023-04-23T00:48:40.518Z,97487.03
2023-04-23T00:53:42.418Z,97486.69
2023-04-23T00:58:45.200Z,97483.69
2023-04-23T01:03:53.881Z,97485.28
2023-04-23T01:08:59.740Z,97480.22
2023-04-23T01:14:03.212Z,97475.72
2023-04-23T01:19:07.927Z,97486.69
2023-04-23T01:24:10.655Z,97486.03
2023-04-23T01:29:14.185Z,97476.97
2023-04-23T01:34:16.057Z,97480.16
2023-04-23T01:39:20.396Z,97483.56
2023-04-23T01:44:31.166Z,97487.44
2023-04-23T01:49:33.168Z,97490.13
2023-04-23T01:54:34.989Z,97479.34
2023-04-23T01:59:37.940Z,97485.44
2023-04-23T02:04:44.587Z,97476.84
2023-04-23T02:09:46.668Z,97481.94
2023-04-23T02:14:51.800Z,97476.53
2023-04-23T02:19:55.878Z,97479.22
2023-04-23T02:25:00.063Z,97479.28
2023-04-23T02:30:02.355Z,97485.94
2023-04-23T02:35:06.654Z,97491.81
2023-04-23T02:40:09.239Z,97488.03
2023-04-23T02:45:12.094Z,97492.09
2023-04-23T02:50:13.898Z,97480.28
2023-04-23T02:55:16.136Z,97475.03
2023-04-23T03:00:18.227Z,97477.78
2023-04-23T03:05:20.230Z,97474.09
2023-04-23T03:10:22.198Z,97468.81
2023-04-23T03:15:24.369Z,97456.69
2023-04-23T03:20:26.853Z,97454.03
2023-04-23T03:25:28.884Z,97451.25
2023-04-23T03:30:31.171Z,97429.78
2023-04-23T03:35:33.200Z,97428.41
2023-04-23T03:40:37.162Z,97415.75
2023-04-23T03:45:41.662Z,97429.84
2023-04-23T03:50:43.756Z,97436.97
2023-04-23T03:56:09.324Z,97415.91
2023-04-23T04:01:22.265Z,97412.78
2023-04-23T04:06:26.454Z,97420.09
2023-04-23T04:11:30.558Z,97431.34
2023-04-23T04:16:32.447Z,97425.13
2023-04-23T04:21:34.396Z,97438.97
2023-04-23T04:26:36.457Z,97440.59
2023-04-23T04:31:38.454Z,97441.19
2023-04-23T04:36:41.360Z,97436.75
2023-04-23T04:41:43.615Z,97448.59
2023-04-23T04:46:46.161Z,97454.63
2023-04-23T04:51:48.296Z,97448.16
2023-04-23T04:56:50.213Z,97448.13
2023-04-23T05:01:52.088Z,97447.28
2023-04-23T05:06:53.934Z,97464.28
2023-04-23T05:11:56.973Z,97466.03
2023-04-23T05:16:58.802Z,97459.94
2023-04-23T05:22:02.920Z,97470.34
2023-04-23T05:27:04.932Z,97466.31
2023-04-23T05:32:07.267Z,97464.63
2023-04-23T05:37:09.307Z,97470.38
2023-04-23T05:42:11.350Z,97461.69
2023-04-23T05:47:14.366Z,97472.88
2023-04-23T05:52:16.428Z,97474.03
2023-04-23T05:57:19.326Z,97473.97
2023-04-23T06:02:24.045Z,97473.09
2023-04-23T06:07:26.762Z,97469.84
2023-04-23T06:12:29.634Z,97473.84
2023-04-23T06:17:31.644Z,97480.59
2023-04-23T06:22:33.750Z,97477.47
2023-04-23T06:27:35.704Z,97478.00
2023-04-23T06:32:44.945Z,97484.75
2023-04-23T06:37:46.706Z,97485.69
2023-04-23T06:42:51.490Z,97497.13
2023-04-23T06:48:14.764Z,97490.28
2023-04-23T06:53:16.638Z,97496.09
2023-04-23T06:58:18.541Z,97497.91
2023-04-23T07:03:20.785Z,97492.66
2023-04-23T07:08:22.733Z,97500.53
2023-04-23T07:13:24.838Z,97509.19
2023-04-23T07:18:26.683Z,97505.41
2023-04-23T07:23:28.551Z,97510.66
2023-04-23T07:28:30.711Z,97515.31
2023-04-23T07:33:32.929Z,97511.44
2023-04-23T07:38:35.919Z,97514.88
2023-04-23T07:43:38.551Z,97514.16
2023-04-23T07:48:40.396Z,97522.44
2023-04-23T07:53:47.127Z,97518.00
2023-04-23T07:58:49.055Z,97517.06
2023-04-23T08:03:51.566Z,97516.22
2023-04-23T08:08:57.353Z,97520.06
2023-04-23T08:13:59.456Z,97515.78
2023-04-23T08:19:06.410Z,97518.44
2023-04-23T08:24:10.690Z,97518.34
2023-04-23T08:29:12.693Z,97517.72
2023-04-23T08:34:15.615Z,97524.34
2023-04-23T08:39:21.638Z,97523.66
2023-04-23T08:44:26.067Z,97541.00
2023-04-23T08:49:33.674Z,97538.34
2023-04-23T08:54:42.150Z,97544.13
2023-04-23T08:59:46.124Z,97547.19
2023-04-23T09:04:50.884Z,97553.47
2023-04-23T09:09:53.955Z,97555.50
2023-04-23T09:14:56.709Z,97562.22
2023-04-23T09:19:59.361Z,97572.72
2023-04-23T09:25:02.188Z,97568.19
2023-04-23T09:30:11.152Z,97565.91
2023-04-23T09:35:15.533Z,97567.72
2023-04-23T09:40:28.154Z,97558.59
2023-04-23T09:45:31.199Z,97553.66
2023-04-23T09:50:34.086Z,97558.91
2023-04-23T09:55:41.046Z,97567.25
2023-04-23T10:00:44.676Z,97567.34
2023-04-23T10:06:00.525Z,97570.91
2023-04-23T10:11:20.273Z,97570.69
2023-04-23T10:16:28.553Z,97558.94
2023-04-23T10:21:50.405Z,97555.06
2023-04-23T10:27:02.110Z,97563.84
2023-04-23T10:32:08.866Z,97553.09
2023-04-23T10:37:12.205Z,97544.41
2023-04-23T10:42:14.725Z,97542.41
2023-04-23T10:47:17.514Z,97545.44
2023-04-23T10:52:22.829Z,97548.66
2023-04-23T10:57:26.345Z,97552.09
2023-04-23T11:02:44.407Z,97546.28
2023-04-23T11:08:19.264Z,97549.94
2023-04-23T11:13:29.547Z,97542.88
2023-04-23T11:18:31.565Z,97531.00
2023-04-23T11:23:33.575Z,97534.66
2023-04-23T11:28:39.616Z,97540.69
2023-04-23T11:33:41.568Z,97547.44
2023-04-23T11:38:43.581Z,97545.72
2023-04-23T11:43:46.814Z,97547.66
2023-04-23T11:48:49.604Z,97532.81
2023-04-23T11:53:51.510Z,97528.00
2023-04-23T11:59:06.123Z,97535.66
2023-04-23T12:04:22.985Z,97535.19
2023-04-23T12:09:27.724Z,97531.78
2023-04-23T12:14:31.226Z,97540.13
2023-04-23T12:19:33.483Z,97553.13
2023-04-23T12:24:51.786Z,97552.47
2023-04-23T12:30:01.098Z,97549.25
2023-04-23T12:35:06.180Z,97541.38
2023-04-23T12:40:08.883Z,97537.38
2023-04-23T12:45:14.937Z,97538.84
2023-04-23T12:50:16.991Z,97531.06
2023-04-23T12:55:19.107Z,97526.94
2023-04-23T13:00:21.292Z,97524.53
2023-04-23T13:05:24.199Z,97513.72
2023-04-23T13:10:26.096Z,97510.16
2023-04-23T13:15:28.312Z,97497.47
2023-04-23T13:20:30.764Z,97498.09
2023-04-23T13:25:32.789Z,97490.31
2023-04-23T13:30:34.828Z,97484.00
2023-04-23T13:35:37.945Z,97482.78
2023-04-23T13:40:39.936Z,97468.94
2023-04-23T13:45:41.883Z,97448.63
2023-04-23T13:50:44.829Z,97445.09
2023-04-23T13:55:46.780Z,97442.59
2023-04-23T14:00:49.157Z,97444.78
2023-04-23T14:05:51.451Z,97449.00
2023-04-23T14:10:53.386Z,97447.22
2023-04-23T14:15:55.646Z,97436.53
2023-04-23T14:20:57.681Z,97431.44
2023-04-23T14:26:05.161Z,97432.13
2023-04-23T14:31:07.718Z,97429.41
2023-04-23T14:36:09.846Z,97428.94
2023-04-23T14:41:11.981Z,97417.16
2023-04-23T14:46:15.461Z,97413.25
2023-04-23T14:51:17.810Z,97407.44
2023-04-23T14:56:19.982Z,97403.31
2023-04-23T15:01:22.103Z,97390.06
2023-04-23T15:06:24.136Z,97381.06
2023-04-23T15:11:26.605Z,97389.44
2023-04-23T15:21:39.326Z,97378.25
2023-04-23T15:26:41.418Z,97384.47
2023-04-23T15:31:43.480Z,97392.25
2023-04-23T15:36:48.171Z,97376.88
2023-04-23T15:41:52.310Z,97374.25
2023-04-23T15:46:54.215Z,97362.03
2023-04-23T15:51:56.073Z,97359.50
2023-04-23T15:56:57.999Z,97365.72
2023-04-23T16:02:00.001Z,97353.59
2023-04-23T16:07:02.000Z,97337.81
2023-04-23T16:12:04.257Z,97336.78
2023-04-23T16:17:06.185Z,97331.53
2023-04-23T16:22:08.085Z,97330.66
2023-04-23T16:27:11.050Z,97321.31
2023-04-23T16:32:14.083Z,97314.88
2023-04-23T16:37:19.000Z,97308.66
2023-04-23T16:42:21.999Z,97304.81
2023-04-23T16:47:23.881Z,97299.88
2023-04-23T16:52:26.488Z,97305.16
2023-04-23T16:57:28.324Z,97296.44
2023-04-23T17:02:30.330Z,97288.84
2023-04-23T17:07:32.884Z,97288.09
2023-04-23T17:12:34.695Z,97283.31
2023-04-23T17:17:36.703Z,97288.78
2023-04-23T17:22:38.476Z,97286.88
2023-04-23T17:27:40.391Z,97274.69
2023-04-23T17:32:45.457Z,97274.38
2023-04-23T17:37:47.653Z,97262.66
2023-04-23T17:42:49.650Z,97268.13
2023-04-23T17:47:51.557Z,97267.00
2023-04-23T17:52:53.717Z,97272.25
2023-04-23T17:57:56.130Z,97275.69
2023-04-23T18:02:58.460Z,97280.69
2023-04-23T18:08:00.878Z,97278.19
2023-04-23T18:13:03.471Z,97273.84
2023-04-23T18:18:05.395Z,97279.75
2023-04-23T18:23:08.199Z,97290.56
2023-04-23T18:28:11.344Z,97291.94
2023-04-23T18:33:36.115Z,97290.63
2023-04-23T18:38:45.328Z,97291.25
2023-04-23T18:43:47.258Z,97303.78
2023-04-23T18:49:01.333Z,97304.81
2023-04-23T18:54:03.362Z,97308.22
2023-04-23T18:59:05.242Z,97304.22
2023-04-23T19:04:08.231Z,97305.69
2023-04-23T19:09:10.531Z,97312.59
2023-04-23T19:14:12.469Z,97322.72
2023-04-23T19:19:14.721Z,97307.09
2023-04-23T19:24:16.604Z,97304.72
2023-04-23T19:29:23.852Z,97300.56
2023-04-23T19:34:27.319Z,97292.22
2023-04-23T19:39:29.618Z,97290.72
2023-04-23T19:44:31.366Z,97284.41
2023-04-23T19:49:33.145Z,97282.88
2023-04-23T19:54:34.944Z,97270.91
2023-04-23T19:59:37.463Z,97265.75
2023-04-23T20:04:41.405Z,97257.00
2023-04-23T20:09:43.609Z,97256.88
2023-04-23T20:14:45.804Z,97247.75
2023-04-23T20:19:47.784Z,97247.59
2023-04-23T20:24:49.589Z,97247.00
2023-04-23T20:29:51.610Z,97239.81
2023-04-23T20:34:53.556Z,97229.78
2023-04-23T20:39:58.666Z,97225.38
2023-04-23T20:45:00.648Z,97235.03
2023-04-23T20:50:02.472Z,97224.00
2023-04-23T20:55:04.526Z,97218.47
2023-04-23T21:00:11.718Z,97209.31
2023-04-23T21:05:13.613Z,97211.03
2023-04-23T21:10:20.092Z,97212.69
2023-04-23T21:15:21.936Z,97210.72
2023-04-23T21:20:23.685Z,97212.75
2023-04-23T21:25:26.877Z,97208.13
2023-04-23T21:30:51.293Z,97213.72
2023-04-23T21:35:53.805Z,97211.25
2023-04-23T21:40:55.770Z,97211.63
2023-04-23T21:46:00.071Z,97199.34
2023-04-23T21:51:02.362Z,97191.88
2023-04-23T21:56:04.361Z,97197.25
2023-04-23T22:01:06.335Z,97185.94
2023-04-23T22:06:09.843Z,97186.53
2023-04-23T22:11:13.246Z,97183.91
2023-04-23T22:16:27.502Z,97169.25
2023-04-23T22:21:30.318Z,97161.28
2023-04-23T22:26:34.068Z,97164.53
2023-04-23T22:31:38.616Z,97160.53
2023-04-23T22:36:43.384Z,97149.06
2023-04-23T22:41:45.689Z,97139.06
2023-04-23T22:46:47.524Z,97132.25
2023-04-23T22:51:52.355Z,97124.03
2023-04-23T22:56:54.277Z,97119.47
2023-04-23T23:01:56.175Z,97108.28
2023-04-23T23:06:58.055Z,97093.84
2023-04-23T23:12:02.516Z,97095.25
2023-04-23T23:17:06.091Z,97096.03
2023-04-23T23:22:07.976Z,97087.84
2023-04-23T23:27:09.951Z,97084.88
2023-04-23T23:32:11.871Z,97079.84
2023-04-23T23:37:13.679Z,97068.03
2023-04-23T23:42:15.526Z,97070.28
2023-04-23T23:47:18.355Z,97066.06
2023-04-23T23:52:20.202Z,97065.50
2023-04-23T23:57:22.201Z,97063.69
